Time;durP1;ratioP1;P1;durP2;ratioP2;P2;SDS_P1;SDS_P2;PMS_P1;PMS_P2;Temp;Humidity;BMP_temperature;BMP_pressure;BME280_temperature;BME280_humidity;BME280_pressure;Samples;Min_cycle;Max_cycle;Signal;HPM_P1;HPM_P2
2023/09/30 00:03:51;;;;;;;5.93;4.78;;;20.30;99.90;;;;;;10128522;29;20236;-86
2023/09/30 00:09:02;;;;;;;5.53;5.03;;;20.50;99.50;;;;;;10110655;29;20235;-86
2023/09/30 00:14:05;;;;;;;10.15;8.00;;;20.80;98.70;;;;;;10130432;29;20236;-86
2023/09/30 00:19:09;;;;;;;7.43;6.10;;;21.00;96.80;;;;;;10129913;29;20236;-86
2023/09/30 00:24:12;;;;;;;7.90;6.40;;;21.10;97.00;;;;;;10129348;29;20313;-86
2023/09/30 00:29:14;;;;;;;6.88;5.30;;;21.30;95.90;;;;;;10128397;29;20676;-86
2023/09/30 00:34:17;;;;;;;8.57;4.97;;;21.50;95.10;;;;;;10112775;29;20231;-86
2023/09/30 00:39:21;;;;;;;5.10;4.60;;;21.60;95.00;;;;;;10111844;29;20247;-86
2023/09/30 00:44:28;;;;;;;5.43;4.93;;;21.90;94.70;;;;;;10111003;29;20236;-86
2023/09/30 00:49:32;;;;;;;4.97;4.57;;;22.20;93.50;;;;;;10111755;29;20236;-86
2023/09/30 00:54:37;;;;;;;5.60;4.82;;;22.30;93.40;;;;;;10111616;29;20276;-86
2023/09/30 00:59:40;;;;;;;7.07;5.63;;;22.60;91.80;;;;;;10111175;29;20236;-86
2023/09/30 01:04:44;;;;;;;3.88;3.58;;;22.40;91.30;;;;;;10108354;29;20966;-86
2023/09/30 01:09:46;;;;;;;6.57;4.15;;;22.50;92.00;;;;;;10111706;29;20224;-86
2023/09/30 01:14:49;;;;;;;5.38;4.45;;;22.50;91.70;;;;;;10110107;29;20300;-85
2023/09/30 01:19:52;;;;;;;6.28;4.30;;;22.50;91.10;;;;;;10127555;29;20239;-85
2023/09/30 01:24:55;;;;;;;5.35;4.50;;;22.60;90.70;;;;;;10126401;29;20723;-84
2023/09/30 01:29:58;;;;;;;5.63;5.13;;;22.70;90.70;;;;;;10126427;29;20236;-85
2023/09/30 01:35:00;;;;;;;3.92;3.42;;;22.60;90.30;;;;;;10127225;29;20679;-86
2023/09/30 01:40:03;;;;;;;4.15;3.75;;;22.70;90.50;;;;;;10100491;29;20239;-85
2023/09/30 01:45:07;;;;;;;5.97;5.32;;;22.60;90.60;;;;;;10160954;29;20670;-85
2023/09/30 01:50:10;;;;;;;8.20;5.20;;;22.50;90.40;;;;;;10126627;29;20295;-85
2023/09/30 01:55:13;;;;;;;5.40;4.88;;;22.50;90.70;;;;;;10134457;29;20236;-85
2023/09/30 02:00:17;;;;;;;5.85;5.32;;;22.50;90.80;;;;;;10116207;29;20276;-85
2023/09/30 02:05:20;;;;;;;5.22;4.75;;;22.20;91.30;;;;;;10116753;29;20320;-85
2023/09/30 02:10:22;;;;;;;5.05;4.55;;;22.40;91.20;;;;;;10118061;29;20280;-85
2023/09/30 02:15:26;;;;;;;7.45;5.95;;;22.20;91.80;;;;;;10134947;29;20653;-84
2023/09/30 02:20:30;;;;;;;6.63;5.63;;;22.00;92.30;;;;;;10116028;29;20355;-85
2023/09/30 02:25:33;;;;;;;7.82;6.05;;;21.90;92.90;;;;;;10116657;29;20276;-85
2023/09/30 02:30:36;;;;;;;5.55;5.05;;;21.80;93.60;;;;;;10116775;29;20730;-85
2023/09/30 02:35:44;;;;;;;6.75;6.05;;;21.70;94.20;;;;;;10121104;29;20299;-85
2023/09/30 02:40:48;;;;;;;5.50;4.90;;;21.80;94.10;;;;;;10155431;29;20310;-85
2023/09/30 02:45:51;;;;;;;4.53;4.13;;;21.90;93.90;;;;;;10150529;29;20265;-85
2023/09/30 02:50:54;;;;;;;5.80;5.30;;;21.70;94.40;;;;;;10116103;29;20243;-85
2023/09/30 02:55:59;;;;;;;9.45;7.75;;;21.70;94.40;;;;;;10115512;29;20251;-85
2023/09/30 03:01:02;;;;;;;7.00;6.30;;;21.70;95.10;;;;;;10131987;29;20227;-85
2023/09/30 03:06:05;;;;;;;10.40;7.95;;;21.50;95.40;;;;;;10115679;29;20259;-85
2023/09/30 03:11:08;;;;;;;8.82;7.25;;;21.60;95.30;;;;;;10115914;29;20224;-85
2023/09/30 03:16:11;;;;;;;6.45;5.75;;;21.50;95.70;;;;;;10131697;29;20622;-85
2023/09/30 03:21:14;;;;;;;7.10;6.40;;;21.20;96.50;;;;;;10131795;29;20662;-85
2023/09/30 03:26:17;;;;;;;9.82;7.65;;;21.40;96.20;;;;;;10130555;29;20272;-86
2023/09/30 03:31:20;;;;;;;8.20;5.97;;;21.20;97.10;;;;;;10113585;29;20228;-86
2023/09/30 03:36:26;;;;;;;8.40;7.43;;;20.70;98.50;;;;;;10114024;29;20236;-86
2023/09/30 03:41:36;;;;;;;6.10;5.50;;;20.50;99.60;;;;;;10103813;29;20251;-86
2023/09/30 03:46:39;;;;;;;10.18;7.35;;;20.20;99.90;;;;;;10128631;29;20308;-86
2023/09/30 03:51:42;;;;;;;5.00;4.40;;;20.30;99.90;;;;;;10129535;29;20256;-86
2023/09/30 03:56:46;;;;;;;11.23;5.60;;;20.20;99.90;;;;;;10128079;29;20283;-86
2023/09/30 04:01:49;;;;;;;7.88;5.60;;;20.00;99.90;;;;;;10129591;29;20252;-86
2023/09/30 04:06:52;;;;;;;5.85;5.00;;;20.10;99.90;;;;;;10129990;29;20374;-86
2023/09/30 04:11:54;;;;;;;6.15;4.15;;;20.10;99.90;;;;;;10130267;29;20236;-86
2023/09/30 04:16:58;;;;;;;5.65;4.68;;;20.00;99.90;;;;;;10130115;29;20712;-86
2023/09/30 04:22:00;;;;;;;8.77;5.32;;;19.80;99.90;;;;;;10128734;29;20712;-86
2023/09/30 04:27:05;;;;;;;7.10;4.47;;;19.80;99.90;;;;;;10128820;29;20331;-86
2023/09/30 04:32:09;;;;;;;4.43;4.03;;;19.70;99.90;;;;;;10128767;29;20680;-86
2023/09/30 04:37:13;;;;;;;6.85;3.78;;;20.00;99.90;;;;;;10097550;29;20259;-86
2023/09/30 04:42:17;;;;;;;2.25;2.05;;;20.20;99.90;;;;;;10111354;29;20244;-86
2023/09/30 04:47:20;;;;;;;3.72;2.20;;;19.90;99.20;;;;;;10111644;29;20263;-86
2023/09/30 04:52:26;;;;;;;5.20;1.15;;;19.50;98.20;;;;;;10129352;29;20263;-86
2023/09/30 04:57:30;;;;;;;2.97;2.55;;;19.20;97.20;;;;;;10127371;29;20240;-86
2023/09/30 05:02:32;;;;;;;6.72;2.20;;;19.30;99.20;;;;;;10128779;29;20291;-86
2023/09/30 05:07:35;;;;;;;3.78;1.73;;;19.40;97.30;;;;;;10129131;29;20315;-86
2023/09/30 05:12:38;;;;;;;4.80;2.55;;;19.20;96.00;;;;;;10111696;29;20243;-86
2023/09/30 05:17:44;;;;;;;5.85;2.25;;;18.90;99.50;;;;;;10126982;29;20240;-86
2023/09/30 05:22:48;;;;;;;3.50;2.15;;;18.90;99.90;;;;;;10132793;29;20634;-86
2023/09/30 05:27:51;;;;;;;6.90;2.33;;;18.90;99.80;;;;;;10134827;29;20275;-86
2023/09/30 05:32:54;;;;;;;3.33;2.20;;;18.90;99.90;;;;;;10135993;29;20236;-86
2023/09/30 05:37:58;;;;;;;5.07;2.20;;;18.80;99.90;;;;;;10136758;29;20215;-86
2023/09/30 05:43:01;;;;;;;6.07;2.00;;;18.40;99.90;;;;;;10134392;29;20280;-86
2023/09/30 05:48:07;;;;;;;5.47;2.75;;;18.60;99.90;;;;;;10102493;29;21000;-87
2023/09/30 05:53:10;;;;;;;3.28;2.20;;;18.60;99.90;;;;;;10135809;29;20220;-87
2023/09/30 05:58:14;;;;;;;4.85;2.60;;;18.80;99.90;;;;;;10118389;29;20244;-86
2023/09/30 06:03:17;;;;;;;4.93;2.22;;;19.10;99.90;;;;;;10135298;29;20236;-86
2023/09/30 06:08:20;;;;;;;2.95;2.42;;;19.10;99.90;;;;;;10134162;29;20320;-87
2023/09/30 06:13:23;;;;;;;3.58;2.78;;;19.00;99.90;;;;;;10134870;29;20283;-85
2023/09/30 06:18:25;;;;;;;4.22;2.45;;;19.10;99.90;;;;;;10116647;29;20303;-86
2023/09/30 06:23:29;;;;;;;3.13;2.38;;;19.40;99.00;;;;;;10134534;29;20293;-86
2023/09/30 06:28:33;;;;;;;3.17;2.38;;;19.50;98.00;;;;;;10133447;29;20275;-87
2023/09/30 06:33:40;;;;;;;7.15;2.63;;;19.20;96.80;;;;;;10133114;29;20236;-86
2023/09/30 06:38:44;;;;;;;5.20;3.33;;;19.30;94.20;;;;;;10114571;29;20236;-86
2023/09/30 06:43:47;;;;;;;3.97;2.45;;;19.20;98.30;;;;;;10131184;29;20228;-86
2023/09/30 06:48:52;;;;;;;4.43;2.50;;;19.30;97.60;;;;;;10130681;29;20368;-86
2023/09/30 06:53:54;;;;;;;5.47;2.92;;;19.20;95.70;;;;;;10130759;29;20651;-85
2023/09/30 06:58:57;;;;;;;5.10;3.05;;;18.70;95.80;;;;;;10113813;29;20690;-86
2023/09/30 07:04:01;;;;;;;5.15;3.15;;;18.80;95.00;;;;;;10114042;29;20950;-86
2023/09/30 07:09:04;;;;;;;10.85;3.22;;;18.80;98.40;;;;;;10131787;29;20765;-87
2023/09/30 07:14:07;;;;;;;5.28;2.67;;;18.70;93.90;;;;;;10117231;29;20239;-87
2023/09/30 07:19:12;;;;;;;9.82;2.97;;;18.90;98.50;;;;;;10133866;29;20236;-87
2023/09/30 07:24:15;;;;;;;9.93;3.28;;;18.50;94.30;;;;;;10133265;29;20260;-87
2023/09/30 07:29:17;;;;;;;5.35;2.85;;;18.50;94.80;;;;;;10132933;29;20255;-86
2023/09/30 07:34:21;;;;;;;9.02;2.65;;;18.40;96.20;;;;;;10145735;29;20236;-87
2023/09/30 07:39:24;;;;;;;6.80;3.00;;;17.90;93.20;;;;;;10130816;29;20304;-85
2023/09/30 07:44:26;;;;;;;6.60;3.25;;;17.90;96.40;;;;;;10130421;29;20248;-85
2023/09/30 07:49:30;;;;;;;7.43;2.83;;;18.30;99.90;;;;;;10130080;29;20256;-84
2023/09/30 07:54:36;;;;;;;6.80;3.15;;;18.40;96.20;;;;;;10119118;29;20263;-85
2023/09/30 07:59:48;;;;;;;10.88;3.65;;;19.10;97.20;;;;;;10114639;29;20235;-85
2023/09/30 08:04:52;;;;;;;4.68;3.05;;;19.30;91.30;;;;;;10107913;29;20236;-85
2023/09/30 08:09:58;;;;;;;7.78;3.22;;;19.70;90.70;;;;;;10111211;29;21132;-85
2023/09/30 08:15:03;;;;;;;9.15;3.50;;;19.30;91.80;;;;;;10112698;29;20308;-86
2023/09/30 08:20:08;;;;;;;6.50;2.63;;;19.80;92.80;;;;;;10129112;29;20786;-86
2023/09/30 08:25:11;;;;;;;5.03;2.65;;;20.00;92.20;;;;;;10127593;29;20642;-85
2023/09/30 08:30:14;;;;;;;6.22;3.28;;;19.60;89.60;;;;;;10126892;29;20264;-86
2023/09/30 08:35:16;;;;;;;6.22;3.03;;;19.80;90.60;;;;;;10129988;29;20298;-87
2023/09/30 08:40:22;;;;;;;11.25;3.38;;;20.30;93.50;;;;;;10112786;29;20676;-87
2023/09/30 08:45:29;;;;;;;5.63;2.67;;;20.20;85.80;;;;;;10126316;29;20777;-86
2023/09/30 08:50:33;;;;;;;8.32;3.50;;;19.50;79.90;;;;;;10096141;29;20259;-87
2023/09/30 08:55:37;;;;;;;8.48;3.08;;;19.50;78.20;;;;;;10117529;29;20228;-87
2023/09/30 09:00:40;;;;;;;6.03;2.72;;;19.70;90.10;;;;;;10127244;29;20252;-87
2023/09/30 09:05:42;;;;;;;8.55;2.40;;;19.70;87.80;;;;;;10128712;29;20300;-87
2023/09/30 09:10:55;;;;;;;6.90;3.05;;;20.10;87.10;;;;;;10112101;29;20324;-87
2023/09/30 09:16:08;;;;;;;7.45;3.22;;;20.30;87.80;;;;;;10126873;29;20688;-87
2023/09/30 09:21:17;;;;;;;6.85;2.45;;;19.60;76.80;;;;;;10073200;29;20237;-87
2023/09/30 09:26:29;;;;;;;5.95;3.50;;;20.30;79.50;;;;;;10111641;29;20255;-87
2023/09/30 09:31:35;;;;;;;4.80;2.60;;;20.70;88.00;;;;;;10099100;29;20769;-85
2023/09/30 09:36:40;;;;;;;4.07;2.60;;;20.90;83.40;;;;;;10124195;29;20236;-86
2023/09/30 09:41:53;;;;;;;4.95;2.30;;;20.80;79.40;;;;;;10126277;29;20650;-86
2023/09/30 09:46:57;;;;;;;5.95;2.63;;;20.90;78.40;;;;;;10126624;29;20284;-86
2023/09/30 09:52:01;;;;;;;7.82;3.42;;;21.80;83.30;;;;;;10127038;29;20618;-85
2023/09/30 09:57:07;;;;;;;4.47;3.00;;;22.00;68.50;;;;;;10126889;29;20232;-86
2023/09/30 10:02:17;;;;;;;7.93;2.63;;;22.20;78.80;;;;;;10126543;29;20684;-85
2023/09/30 10:07:30;;;;;;;4.35;2.60;;;21.80;64.20;;;;;;10128975;29;20291;-85
2023/09/30 10:12:38;;;;;;;11.98;2.53;;;21.50;72.60;;;;;;10133946;29;20243;-86
2023/09/30 10:18:07;;;;;;;5.75;3.03;;;21.60;68.10;;;;;;9457862;29;10000310;-85
2023/09/30 10:23:22;;;;;;;3.38;2.40;;;21.70;77.50;;;;;;10118876;29;20307;-85
2023/09/30 10:28:44;;;;;;;5.82;2.50;;;22.00;68.00;;;;;;10113285;29;20366;-85
2023/09/30 10:34:02;;;;;;;9.10;2.60;;;22.20;72.90;;;;;;10112977;29;20236;-85
2023/09/30 10:39:09;;;;;;;3.92;2.30;;;22.10;62.60;;;;;;10113145;29;20288;-86
2023/09/30 10:44:30;;;;;;;4.60;2.28;;;21.70;71.50;;;;;;10130437;29;20299;-86
2023/09/30 10:49:33;;;;;;;4.35;1.83;;;21.60;67.50;;;;;;10130007;29;20719;-85
2023/09/30 10:54:36;;;;;;;7.78;2.58;;;20.90;51.90;;;;;;10113315;29;20236;-86
2023/09/30 10:59:38;;;;;;;4.63;2.58;;;20.90;67.00;;;;;;10116321;29;20271;-86
2023/09/30 11:04:48;;;;;;;3.20;2.33;;;20.60;57.80;;;;;;10118908;29;20303;-86
2023/09/30 11:09:50;;;;;;;4.25;2.13;;;20.40;71.50;;;;;;10130045;29;20264;-85
2023/09/30 11:15:01;;;;;;;5.00;2.30;;;20.40;60.60;;;;;;10113677;29;20279;-85
2023/09/30 11:20:06;;;;;;;6.47;2.92;;;20.90;72.40;;;;;;10130355;29;20303;-85
2023/09/30 11:25:17;;;;;;;4.15;2.60;;;20.80;59.10;;;;;;10112177;29;20320;-85
2023/09/30 11:30:20;;;;;;;4.97;2.53;;;21.10;78.20;;;;;;10127432;29;20260;-85
2023/09/30 11:35:23;;;;;;;2.40;1.98;;;21.30;66.70;;;;;;10114314;29;20292;-85
2023/09/30 11:40:26;;;;;;;7.47;2.22;;;21.70;62.80;;;;;;10111343;29;20300;-85
2023/09/30 11:45:28;;;;;;;5.75;2.30;;;21.40;55.00;;;;;;10136557;29;20628;-84
2023/09/30 11:50:47;;;;;;;4.70;2.30;;;21.30;50.20;;;;;;10150015;29;20291;-84
2023/09/30 11:55:50;;;;;;;4.45;2.13;;;21.10;62.90;;;;;;10138039;29;20260;-84
2023/09/30 12:00:59;;;;;;;3.42;1.92;;;20.70;45.20;;;;;;10127939;29;20288;-85
2023/09/30 12:06:02;;;;;;;3.28;1.92;;;21.00;66.40;;;;;;10113770;29;20329;-85
2023/09/30 12:11:05;;;;;;;2.85;2.13;;;21.20;65.60;;;;;;10130279;29;20331;-85
2023/09/30 12:16:09;;;;;;;2.45;1.73;;;21.40;68.00;;;;;;10112631;29;20299;-85
2023/09/30 12:21:19;;;;;;;8.10;2.47;;;20.70;60.30;;;;;;10112044;29;20348;-84
2023/09/30 12:26:22;;;;;;;4.82;2.38;;;20.60;53.00;;;;;;10128891;29;20275;-84
2023/09/30 12:31:25;;;;;;;4.03;1.92;;;20.30;45.20;;;;;;10128601;29;20255;-84
2023/09/30 12:36:28;;;;;;;2.88;1.58;;;20.20;48.90;;;;;;10107807;29;20833;-85
2023/09/30 12:41:32;;;;;;;3.88;1.90;;;20.30;65.20;;;;;;10110325;29;20243;-85
2023/09/30 12:46:36;;;;;;;6.15;2.08;;;20.50;69.80;;;;;;10126346;29;20749;-85
2023/09/30 12:51:39;;;;;;;4.65;2.28;;;20.90;59.60;;;;;;10111857;29;20319;-85
2023/09/30 12:56:42;;;;;;;4.80;2.63;;;20.70;62.90;;;;;;10128008;29;20239;-85
2023/09/30 13:01:46;;;;;;;11.77;2.67;;;20.60;55.40;;;;;;10127712;29;20239;-85
2023/09/30 13:06:50;;;;;;;5.97;2.42;;;20.50;47.70;;;;;;10108651;29;20244;-85
2023/09/30 13:11:53;;;;;;;7.75;2.20;;;20.50;58.40;;;;;;10127851;29;20324;-85
2023/09/30 13:16:56;;;;;;;4.20;2.55;;;20.70;56.10;;;;;;10127711;29;20609;-85
2023/09/30 13:21:58;;;;;;;2.88;1.40;;;20.80;66.20;;;;;;10125308;29;20240;-85
2023/09/30 13:27:01;;;;;;;6.30;2.60;;;20.60;52.80;;;;;;10109084;29;20263;-85
2023/09/30 13:32:04;;;;;;;3.00;1.65;;;20.40;54.30;;;;;;10111189;29;20299;-85
2023/09/30 13:37:07;;;;;;;3.75;2.30;;;20.50;56.00;;;;;;10123037;29;20672;-85
2023/09/30 13:42:10;;;;;;;3.47;1.85;;;21.00;58.20;;;;;;10110765;29;20272;-86
2023/09/30 13:47:13;;;;;;;3.90;2.25;;;21.40;63.90;;;;;;10116946;29;20271;-85
2023/09/30 13:52:15;;;;;;;4.32;2.33;;;21.80;58.80;;;;;;10133543;29;20271;-86
2023/09/30 13:57:18;;;;;;;5.45;1.92;;;21.40;55.20;;;;;;10134262;29;20276;-85
2023/09/30 14:02:22;;;;;;;5.15;2.22;;;21.20;55.60;;;;;;10134798;29;20276;-85
2023/09/30 14:07:26;;;;;;;8.98;2.60;;;20.80;54.10;;;;;;10117140;29;20231;-86
2023/09/30 14:12:28;;;;;;;7.22;2.20;;;20.70;51.60;;;;;;10134343;29;20248;-86
2023/09/30 14:17:32;;;;;;;4.00;2.50;;;20.80;56.30;;;;;;10134291;29;20259;-86
2023/09/30 14:22:34;;;;;;;4.47;2.40;;;20.90;71.20;;;;;;10145266;29;20268;-85
2023/09/30 14:27:37;;;;;;;5.47;2.00;;;20.90;51.80;;;;;;10133357;29;20316;-86
2023/09/30 14:32:40;;;;;;;7.10;2.05;;;20.50;45.70;;;;;;10132712;29;20232;-85
2023/09/30 14:37:42;;;;;;;4.50;2.00;;;20.40;56.50;;;;;;10132111;29;20649;-85
2023/09/30 14:42:45;;;;;;;3.08;1.60;;;20.20;50.60;;;;;;10132110;29;20244;-85
2023/09/30 14:47:47;;;;;;;4.25;2.65;;;20.10;55.50;;;;;;10132574;29;20683;-85
2023/09/30 14:52:50;;;;;;;14.27;2.63;;;20.00;62.20;;;;;;10131853;29;20280;-85
2023/09/30 14:57:53;;;;;;;3.80;2.10;;;19.70;48.50;;;;;;10131016;29;20256;-85
2023/09/30 15:02:56;;;;;;;2.83;1.70;;;19.70;54.70;;;;;;9775886;29;9999926;-84
2023/09/30 15:08:01;;;;;;;3.10;1.80;;;19.80;65.10;;;;;;10129057;29;20247;-84
2023/09/30 15:13:05;;;;;;;1.95;1.77;;;20.00;66.10;;;;;;10130280;29;20824;-84
2023/09/30 15:18:07;;;;;;;6.63;2.20;;;20.00;64.30;;;;;;10110146;29;20280;-84
2023/09/30 15:23:10;;;;;;;5.68;2.13;;;20.10;60.40;;;;;;10111729;29;20280;-84
2023/09/30 15:28:13;;;;;;;5.65;2.17;;;20.30;66.30;;;;;;10128623;29;20267;-83
2023/09/30 15:33:17;;;;;;;4.00;1.63;;;20.40;64.90;;;;;;10112471;29;20684;-84
2023/09/30 15:38:20;;;;;;;6.82;2.05;;;20.40;66.00;;;;;;10098360;29;20224;-84
2023/09/30 15:43:22;;;;;;;10.63;2.13;;;20.20;62.00;;;;;;10077436;29;20317;-84
2023/09/30 15:48:25;;;;;;;2.75;1.52;;;20.10;58.80;;;;;;10090876;29;20300;-85
2023/09/30 15:53:33;;;;;;;5.80;2.22;;;20.00;70.20;;;;;;10093789;29;20232;-84
2023/09/30 15:58:36;;;;;;;11.25;3.17;;;19.70;60.10;;;;;;10114206;29;20788;-84
2023/09/30 16:03:38;;;;;;;4.47;1.88;;;19.30;58.40;;;;;;10059920;29;20296;-84
2023/09/30 16:08:41;;;;;;;5.80;2.08;;;19.10;61.20;;;;;;10073848;29;20260;-84
2023/09/30 16:13:44;;;;;;;5.55;1.60;;;18.90;63.30;;;;;;10093711;29;20229;-84
2023/09/30 16:18:47;;;;;;;6.30;3.00;;;18.60;64.40;;;;;;10086290;29;20249;-84
2023/09/30 16:23:50;;;;;;;10.10;2.85;;;17.80;70.20;;;;;;10073500;29;20264;-85
2023/09/30 16:28:52;;;;;;;5.60;2.72;;;17.10;78.00;;;;;;10128835;29;20256;-85
2023/09/30 16:33:55;;;;;;;6.15;3.97;;;17.10;85.90;;;;;;10111256;29;20248;-83
2023/09/30 16:38:58;;;;;;;8.15;3.83;;;16.70;88.20;;;;;;10121823;29;20241;-83
2023/09/30 16:44:03;;;;;;;7.75;3.95;;;;;;;;;;10089180;29;20247;-83
2023/09/30 16:49:06;;;;;;;7.80;3.45;;;;;;;;;;10109573;29;20264;-83
2023/09/30 16:54:10;;;;;;;8.82;3.40;;;15.20;96.40;;;;;;10106144;29;20235;-83
2023/09/30 16:59:13;;;;;;;7.55;3.50;;;15.00;97.40;;;;;;10126848;29;20231;-84
2023/09/30 17:04:16;;;;;;;9.77;3.47;;;;;;;;;;10087732;29;20641;-83
2023/09/30 17:09:19;;;;;;;7.70;3.60;;;14.70;99.00;;;;;;10080175;29;20263;-83
2023/09/30 17:14:21;;;;;;;7.55;4.07;;;14.80;99.00;;;;;;10122280;29;20229;-84
2023/09/30 17:19:24;;;;;;;10.90;4.18;;;14.40;99.60;;;;;;10123141;29;20239;-84
2023/09/30 17:24:26;;;;;;;10.32;4.18;;;14.30;99.90;;;;;;10108022;29;20319;-84
2023/09/30 17:29:29;;;;;;;5.90;2.40;;;14.20;99.90;;;;;;10124564;29;20263;-84
2023/09/30 17:34:36;;;;;;;9.45;3.83;;;14.50;99.90;;;;;;10135430;29;20240;-84
2023/09/30 17:39:41;;;;;;;11.40;4.57;;;14.10;98.70;;;;;;10125142;29;20287;-84
2023/09/30 17:44:43;;;;;;;13.23;4.70;;;13.30;99.90;;;;;;10120720;29;20236;-85
2023/09/30 17:49:47;;;;;;;7.57;4.20;;;12.80;99.90;;;;;;10127478;29;20355;-85
2023/09/30 17:54:49;;;;;;;42.90;6.20;;;12.30;99.90;;;;;;10133580;29;20235;-84
2023/09/30 17:59:52;;;;;;;14.68;4.05;;;12.20;99.90;;;;;;10142330;29;20228;-85
2023/09/30 18:04:55;;;;;;;9.25;3.45;;;12.10;99.90;;;;;;9770473;29;10000553;-85
2023/09/30 18:09:58;;;;;;;10.88;4.05;;;;;;;;;;10125864;29;21048;-85
2023/09/30 18:15:01;;;;;;;14.13;4.93;;;11.60;99.90;;;;;;10123998;29;20936;-85
2023/09/30 18:20:05;;;;;;;9.25;3.45;;;11.80;99.90;;;;;;10101473;29;20316;-85
2023/09/30 18:25:08;;;;;;;6.13;2.92;;;12.10;99.90;;;;;;10096240;29;20807;-85
2023/09/30 18:30:11;;;;;;;8.25;4.07;;;12.40;99.90;;;;;;10125789;29;20739;-85
2023/09/30 18:35:14;;;;;;;9.40;3.38;;;12.50;99.90;;;;;;10116392;29;20311;-85
2023/09/30 18:40:16;;;;;;;9.93;4.18;;;12.50;99.90;;;;;;10101408;29;20240;-85
2023/09/30 18:45:19;;;;;;;5.80;2.88;;;12.50;99.90;;;;;;10098098;29;20245;-85
2023/09/30 18:50:22;;;;;;;5.82;3.22;;;12.70;99.90;;;;;;10093773;29;20329;-85
2023/09/30 18:55:24;;;;;;;7.05;3.30;;;12.70;99.90;;;;;;10090799;29;20240;-85
2023/09/30 19:00:27;;;;;;;4.60;2.88;;;12.60;99.90;;;;;;10044068;29;20249;-85
2023/09/30 19:05:30;;;;;;;8.02;3.20;;;12.60;99.90;;;;;;10080474;29;20661;-86
2023/09/30 19:10:34;;;;;;;5.20;3.95;;;12.90;99.90;;;;;;10089339;29;20308;-85
2023/09/30 19:15:37;;;;;;;9.55;4.18;;;13.00;99.90;;;;;;10054549;29;20680;-85
2023/09/30 19:20:43;;;;;;;15.35;5.45;;;12.80;99.90;;;;;;10091081;29;20236;-85
2023/09/30 19:25:49;;;;;;;8.45;5.15;;;12.70;99.90;;;;;;10092195;29;20312;-85
2023/09/30 19:30:52;;;;;;;12.90;5.32;;;12.70;99.90;;;;;;10128237;29;20259;-85
2023/09/30 19:35:55;;;;;;;10.73;4.70;;;13.40;99.90;;;;;;10130602;29;20244;-85
2023/09/30 19:40:58;;;;;;;11.98;5.03;;;14.00;99.90;;;;;;10122115;29;20294;-85
2023/09/30 19:46:02;;;;;;;9.85;4.43;;;14.20;99.90;;;;;;10137006;29;20298;-86
2023/09/30 19:51:05;;;;;;;10.35;5.22;;;13.80;99.90;;;;;;10147034;29;20267;-85
2023/09/30 19:56:08;;;;;;;12.60;5.88;;;14.20;99.90;;;;;;10093127;29;20293;-85
2023/09/30 20:01:11;;;;;;;12.40;6.13;;;14.40;99.90;;;;;;10129054;29;20684;-86
2023/09/30 20:06:18;;;;;;;12.90;6.65;;;14.70;99.90;;;;;;10111636;29;20664;-86
2023/09/30 20:11:28;;;;;;;13.30;6.95;;;14.50;99.90;;;;;;10129853;29;20300;-85
2023/09/30 20:16:31;;;;;;;8.05;4.90;;;14.30;99.90;;;;;;10129486;29;20236;-85
2023/09/30 20:21:36;;;;;;;11.27;4.10;;;14.10;99.90;;;;;;10128108;29;20284;-85
2023/09/30 20:26:39;;;;;;;9.85;4.75;;;13.80;99.90;;;;;;10112426;29;20315;-86
2023/09/30 20:31:41;;;;;;;11.02;4.57;;;14.30;99.90;;;;;;10113068;29;20260;-85
2023/09/30 20:36:44;;;;;;;10.73;6.45;;;14.50;99.90;;;;;;10127978;29;20273;-86
2023/09/30 20:41:49;;;;;;;8.90;4.78;;;13.80;99.90;;;;;;10128581;29;20272;-86
2023/09/30 20:46:53;;;;;;;9.70;5.15;;;14.00;99.90;;;;;;10169220;29;20302;-86
2023/09/30 20:51:55;;;;;;;8.90;4.88;;;14.50;99.90;;;;;;10147799;29;20316;-86
2023/09/30 20:56:59;;;;;;;14.25;6.93;;;14.80;99.90;;;;;;10113042;29;20220;-85
2023/09/30 21:02:03;;;;;;;17.10;8.25;;;14.70;99.90;;;;;;10111481;29;20292;-86
2023/09/30 21:07:06;;;;;;;23.58;11.40;;;14.60;99.90;;;;;;10114097;29;20247;-85
2023/09/30 21:12:09;;;;;;;21.55;9.80;;;14.20;99.90;;;;;;10126841;29;20264;-86
2023/09/30 21:17:11;;;;;;;17.02;7.55;;;13.90;99.90;;;;;;10110206;29;20259;-85
2023/09/30 21:22:14;;;;;;;13.27;6.40;;;13.60;99.90;;;;;;10107826;29;20328;-84
2023/09/30 21:27:17;;;;;;;18.15;9.10;;;14.00;99.90;;;;;;10114360;29;20299;-85
2023/09/30 21:32:19;;;;;;;19.55;7.93;;;14.50;99.90;;;;;;10102032;29;20672;-86
2023/09/30 21:37:22;;;;;;;11.93;5.82;;;14.30;99.90;;;;;;10106483;29;20228;-86
2023/09/30 21:42:25;;;;;;;14.90;6.93;;;13.80;99.90;;;;;;10108723;29;20236;-85
2023/09/30 21:47:28;;;;;;;14.68;6.50;;;13.50;99.90;;;;;;10098865;29;20237;-86
2023/09/30 21:52:31;;;;;;;17.55;7.78;;;13.00;99.90;;;;;;10088536;29;20318;-86
2023/09/30 21:57:33;;;;;;;25.27;6.63;;;12.80;99.90;;;;;;10091953;29;20265;-86
2023/09/30 22:02:36;;;;;;;14.05;5.97;;;12.70;99.90;;;;;;10107412;29;20298;-86
2023/09/30 22:07:39;;;;;;;12.57;5.72;;;12.60;99.90;;;;;;10093406;29;20240;-86
2023/09/30 22:12:43;;;;;;;8.02;4.97;;;12.70;99.90;;;;;;10107237;29;20260;-86
2023/09/30 22:17:47;;;;;;;9.93;4.22;;;12.70;99.90;;;;;;10111067;29;20232;-86
2023/09/30 22:22:50;;;;;;;13.00;4.95;;;12.80;99.90;;;;;;10134693;29;20660;-86
2023/09/30 22:27:53;;;;;;;9.82;4.93;;;12.80;99.90;;;;;;10121389;29;20271;-86
2023/09/30 22:32:57;;;;;;;7.30;3.03;;;12.70;99.90;;;;;;10119921;29;20319;-86
2023/09/30 22:38:00;;;;;;;8.93;4.03;;;12.70;99.90;;;;;;10136031;29;20634;-86
2023/09/30 22:43:05;;;;;;;7.60;3.63;;;12.70;99.90;;;;;;10141887;29;20236;-85
2023/09/30 22:48:08;;;;;;;7.43;4.20;;;12.60;99.90;;;;;;10130058;29;20239;-87
2023/09/30 22:53:11;;;;;;;9.05;4.90;;;12.40;99.90;;;;;;10131548;29;20263;-87
2023/09/30 22:58:14;;;;;;;10.77;5.35;;;12.20;99.90;;;;;;10132923;29;20259;-86
2023/09/30 23:03:17;;;;;;;11.23;4.30;;;12.20;99.90;;;;;;10116218;29;20675;-86
2023/09/30 23:08:20;;;;;;;12.10;4.93;;;11.90;99.90;;;;;;10132692;29;20240;-87
2023/09/30 23:13:23;;;;;;;11.18;4.85;;;11.80;99.90;;;;;;10131974;29;20284;-87
2023/09/30 23:18:25;;;;;;;12.88;5.72;;;11.80;99.90;;;;;;10116029;29;20320;-87
2023/09/30 23:23:28;;;;;;;7.63;4.40;;;11.80;99.90;;;;;;10130427;29;20236;-87
2023/09/30 23:28:34;;;;;;;6.22;4.72;;;12.00;99.90;;;;;;10132512;29;20300;-87
2023/09/30 23:33:38;;;;;;;11.48;4.88;;;11.90;99.90;;;;;;10131488;29;20673;-87
2023/09/30 23:38:44;;;;;;;8.93;4.97;;;12.20;99.90;;;;;;10115450;29;20292;-87
2023/09/30 23:43:46;;;;;;;11.07;5.43;;;12.00;99.90;;;;;;10131675;29;20288;-87
2023/09/30 23:48:51;;;;;;;12.18;5.15;;;12.00;99.90;;;;;;10130846;29;20650;-87
2023/09/30 23:53:55;;;;;;;8.35;4.43;;;11.80;99.90;;;;;;10114523;29;20728;-86
2023/09/30 23:59:00;;;;;;;9.98;5.35;;;11.70;99.90;;;;;;10114396;29;20236;-87
